createdAt,value
2024-04-18T00:00:22.157Z,10.00
2024-04-18T00:02:49.190Z,10.30
2024-04-18T00:05:20.742Z,9.80
2024-04-18T00:07:48.283Z,10.67
2024-04-18T00:10:18.208Z,9.90
2024-04-18T00:12:47.897Z,10.67
2024-04-18T00:15:17.897Z,11.07
2024-04-18T00:17:45.102Z,11.77
2024-04-18T00:20:14.762Z,10.33
2024-04-18T00:22:41.792Z,9.67
2024-04-18T00:25:12.893Z,10.47
2024-04-18T00:27:39.953Z,10.77
2024-04-18T00:30:13.218Z,10.87
2024-04-18T00:32:40.246Z,10.50
2024-04-18T00:35:10.490Z,10.50
2024-04-18T00:37:38.079Z,10.73
2024-04-18T00:40:08.595Z,12.03
2024-04-18T00:42:35.695Z,12.00
2024-04-18T00:45:05.331Z,11.77
2024-04-18T00:47:35.459Z,10.77
2024-04-18T00:50:05.876Z,10.83
2024-04-18T00:52:33.037Z,10.87
2024-04-18T00:55:04.375Z,12.03
2024-04-18T00:57:33.444Z,11.63
2024-04-18T01:00:03.615Z,10.77
2024-04-18T01:02:31.431Z,11.70
2024-04-18T01:05:05.186Z,10.57
2024-04-18T01:07:32.277Z,10.83
2024-04-18T01:10:01.921Z,10.30
2024-04-18T01:12:28.992Z,11.77
2024-04-18T01:14:58.656Z,11.30
2024-04-18T01:17:26.156Z,11.43
2024-04-18T01:19:55.846Z,11.77
2024-04-18T01:22:25.667Z,12.40
2024-04-18T01:24:55.281Z,12.73
2024-04-18T01:27:25.078Z,12.30
2024-04-18T01:29:54.721Z,12.90
2024-04-18T01:32:21.753Z,12.37
2024-04-18T01:34:51.346Z,12.93
2024-04-18T01:37:18.473Z,13.03
2024-04-18T01:39:48.510Z,12.30
2024-04-18T01:42:15.631Z,12.53
2024-04-18T01:44:48.571Z,12.87
2024-04-18T01:47:15.636Z,12.90
2024-04-18T01:49:45.328Z,12.00
2024-04-18T01:52:12.378Z,12.47
2024-04-18T01:54:42.132Z,12.37
2024-04-18T01:57:09.244Z,11.23
2024-04-18T01:59:38.924Z,11.53
2024-04-18T02:02:08.538Z,11.43
2024-04-18T02:04:38.225Z,11.67
2024-04-18T02:07:06.114Z,11.00
2024-04-18T02:09:35.775Z,11.33
2024-04-18T02:12:02.880Z,12.30
2024-04-18T02:14:32.783Z,12.73
2024-04-18T02:16:59.977Z,12.83
2024-04-18T02:19:32.385Z,12.53
2024-04-18T02:21:59.750Z,13.77
2024-04-18T02:24:29.354Z,13.73
2024-04-18T02:26:56.566Z,14.80
2024-04-18T02:29:26.246Z,15.07
2024-04-18T02:31:53.310Z,14.60
2024-04-18T02:34:22.962Z,16.03
2024-04-18T02:36:52.645Z,15.50
2024-04-18T02:39:22.310Z,17.10
2024-04-18T02:41:50.422Z,16.30
2024-04-18T02:44:20.033Z,16.33
2024-04-18T02:46:47.048Z,16.63
2024-04-18T02:49:16.644Z,16.30
2024-04-18T02:51:43.672Z,17.20
2024-04-18T02:54:16.008Z,17.73
2024-04-18T02:56:43.032Z,17.90
2024-04-18T02:59:12.827Z,18.07
2024-04-18T03:01:39.845Z,17.70
2024-04-18T03:04:09.473Z,19.27
2024-04-18T03:06:36.595Z,18.97
2024-04-18T03:09:06.382Z,19.40
2024-04-18T03:11:36.128Z,19.73
2024-04-18T03:14:05.856Z,20.27
2024-04-18T03:16:33.100Z,20.13
2024-04-18T03:19:03.761Z,20.30
2024-04-18T03:21:30.777Z,20.27
2024-04-18T03:24:00.402Z,19.90
2024-04-18T03:26:27.434Z,20.73
2024-04-18T03:28:59.715Z,20.13
2024-04-18T03:31:26.767Z,20.10
2024-04-18T03:33:56.496Z,22.23
2024-04-18T03:36:23.544Z,20.07
2024-04-18T03:38:56.132Z,20.27
2024-04-18T03:41:26.885Z,19.67
2024-04-18T03:44:00.183Z,20.17
2024-04-18T03:46:29.842Z,19.77
2024-04-18T03:48:59.527Z,19.73
2024-04-18T03:51:28.956Z,21.13
2024-04-18T03:53:58.655Z,20.37
2024-04-18T03:56:25.810Z,20.20
2024-04-18T03:58:56.215Z,19.63
2024-04-18T04:01:26.977Z,20.60
2024-04-18T04:03:57.251Z,20.20
2024-04-18T04:06:24.632Z,20.07
2024-04-18T04:08:54.302Z,19.53
2024-04-18T04:11:22.196Z,20.47
2024-04-18T04:13:51.833Z,20.20
2024-04-18T04:16:19.686Z,19.73
2024-04-18T04:18:56.212Z,20.37
2024-04-18T04:21:23.688Z,20.67
2024-04-18T04:23:53.961Z,20.47
2024-04-18T04:26:21.022Z,20.60
2024-04-18T04:28:50.625Z,21.20
2024-04-18T04:31:17.751Z,20.23
2024-04-18T04:33:47.760Z,21.03
2024-04-18T04:36:18.086Z,19.00
2024-04-18T04:38:47.751Z,19.10
2024-04-18T04:41:17.410Z,19.90
2024-04-18T04:43:44.427Z,19.60
2024-04-18T04:46:14.062Z,19.40
2024-04-18T04:48:41.207Z,18.73
2024-04-18T04:51:10.883Z,18.27
2024-04-18T04:53:40.597Z,18.00
2024-04-18T04:56:11.201Z,17.77
2024-04-18T04:58:38.217Z,18.60
2024-04-18T05:01:08.424Z,17.37
2024-04-18T05:03:35.823Z,17.00
2024-04-18T05:06:05.498Z,16.27
2024-04-18T05:08:32.618Z,16.70
2024-04-18T05:11:05.987Z,16.27
2024-04-18T05:13:33.108Z,16.10
2024-04-18T05:16:02.907Z,15.87
2024-04-18T05:18:30.047Z,16.07
2024-04-18T05:20:59.741Z,16.47
2024-04-18T05:23:26.792Z,15.77
2024-04-18T05:25:56.435Z,15.10
2024-04-18T05:28:41.362Z,14.87
2024-04-18T05:31:11.052Z,15.13
2024-04-18T05:33:40.767Z,15.57
2024-04-18T05:36:11.263Z,14.83
2024-04-18T05:38:40.911Z,15.17
2024-04-18T05:41:10.565Z,14.20
2024-04-18T05:43:42.822Z,14.07
2024-04-18T05:46:12.440Z,13.13
2024-04-18T05:48:42.250Z,13.07
2024-04-18T05:51:11.931Z,13.20
2024-04-18T05:53:41.653Z,13.63
2024-04-18T05:56:11.263Z,13.00
2024-04-18T05:58:45.988Z,13.07
2024-04-18T06:01:15.668Z,12.60
2024-04-18T06:03:45.448Z,13.23
2024-04-18T06:06:15.116Z,13.20
2024-04-18T06:08:44.732Z,12.70
2024-04-18T06:11:14.379Z,12.03
2024-04-18T06:13:46.614Z,11.53
2024-04-18T06:16:16.263Z,11.53
2024-04-18T06:18:45.957Z,11.50
2024-04-18T06:21:16.527Z,12.50
2024-04-18T06:23:46.159Z,13.83
2024-04-18T06:26:16.863Z,12.40
2024-04-18T06:28:49.259Z,12.33
2024-04-18T06:31:19.777Z,11.53
2024-04-18T06:33:49.821Z,13.00
2024-04-18T06:36:20.250Z,11.80
2024-04-18T06:38:49.944Z,11.03
2024-04-18T06:41:19.686Z,10.50
2024-04-18T06:43:52.103Z,10.30
2024-04-18T06:46:21.899Z,9.83
2024-04-18T06:48:51.891Z,10.80
2024-04-18T06:51:21.708Z,9.87
2024-04-18T06:53:51.488Z,9.30
2024-04-18T06:56:23.161Z,10.03
2024-04-18T06:58:55.699Z,9.93
2024-04-18T07:01:25.604Z,10.30
2024-04-18T07:03:55.653Z,11.07
2024-04-18T07:06:25.657Z,10.00
2024-04-18T07:08:55.361Z,10.70
2024-04-18T07:11:25.087Z,8.00
2024-04-18T07:13:57.368Z,6.83
2024-04-18T07:16:27.256Z,6.73
2024-04-18T07:18:57.250Z,6.33
2024-04-18T07:21:27.155Z,5.93
2024-04-18T07:24:00.232Z,5.20
2024-04-18T07:26:31.275Z,5.23
2024-04-18T07:29:04.618Z,5.00
2024-04-18T07:31:34.504Z,4.87
2024-04-18T07:34:04.280Z,5.07
2024-04-18T07:36:34.057Z,5.00
2024-04-18T07:39:03.836Z,4.40
2024-04-18T07:41:33.607Z,5.80
2024-04-18T07:44:10.077Z,4.93
2024-04-18T07:46:41.096Z,5.57
2024-04-18T07:49:12.033Z,4.80
2024-04-18T07:51:42.630Z,5.03
2024-04-18T07:54:12.545Z,4.67
2024-04-18T07:56:42.567Z,4.47
2024-04-18T07:59:15.946Z,3.93
2024-04-18T08:01:47.427Z,4.00
2024-04-18T08:04:35.147Z,3.33
2024-04-18T08:07:10.036Z,3.90
2024-04-18T08:09:44.436Z,3.83
2024-04-18T08:12:24.253Z,4.23
2024-04-18T08:15:04.946Z,4.30
2024-04-18T08:17:38.344Z,4.00
2024-04-18T08:20:09.420Z,4.00
2024-04-18T08:22:39.116Z,3.83
2024-04-18T08:25:09.637Z,3.57
2024-04-18T08:27:39.531Z,3.50
2024-04-18T08:30:12.989Z,3.43
2024-04-18T08:32:42.857Z,3.40
2024-04-18T08:35:13.002Z,3.23
2024-04-18T08:37:42.721Z,3.50
2024-04-18T08:40:13.570Z,3.40
2024-04-18T08:42:43.503Z,3.27
2024-04-18T08:45:17.379Z,4.00
2024-04-18T08:47:49.880Z,2.80
2024-04-18T08:50:20.397Z,2.40
2024-04-18T08:52:50.122Z,2.43
2024-04-18T08:55:20.543Z,2.50
2024-04-18T08:57:52.981Z,2.13
2024-04-18T09:00:25.727Z,2.30
2024-04-18T09:02:56.483Z,2.20
2024-04-18T09:05:26.124Z,2.60
2024-04-18T09:07:55.787Z,2.10
2024-04-18T09:10:25.572Z,1.87
2024-04-18T09:12:58.096Z,2.03
2024-04-18T09:15:32.802Z,2.57
2024-04-18T09:18:07.250Z,1.90
2024-04-18T09:20:39.643Z,2.33
2024-04-18T09:23:09.433Z,2.17
2024-04-18T09:25:40.530Z,1.97
2024-04-18T09:28:11.740Z,1.97
2024-04-18T09:30:44.534Z,2.10
2024-04-18T09:33:14.878Z,1.87
2024-04-18T09:35:46.582Z,1.70
2024-04-18T09:38:17.517Z,1.60
2024-04-18T09:40:55.197Z,1.30
2024-04-18T09:43:27.207Z,1.53
2024-04-18T09:46:05.666Z,2.77
2024-04-18T09:48:36.243Z,1.80
2024-04-18T09:51:07.141Z,1.60
2024-04-18T09:53:37.703Z,1.50
2024-04-18T09:56:08.155Z,1.77
2024-04-18T09:58:39.832Z,1.37
2024-04-18T10:01:13.291Z,2.50
2024-04-18T10:03:43.543Z,2.00
2024-04-18T10:06:15.668Z,1.80
2024-04-18T10:08:51.693Z,1.80
2024-04-18T10:11:23.537Z,1.70
2024-04-18T10:13:53.427Z,1.50
2024-04-18T10:16:25.705Z,1.90
2024-04-18T10:18:55.960Z,1.57
2024-04-18T10:21:37.847Z,1.77
2024-04-18T10:24:21.530Z,1.60
2024-04-18T10:27:01.772Z,1.93
2024-04-18T10:29:31.693Z,1.63
2024-04-18T10:32:06.811Z,1.70
2024-04-18T10:34:37.116Z,1.63
2024-04-18T10:37:09.515Z,1.67
2024-04-18T10:39:41.212Z,1.70
2024-04-18T10:42:12.314Z,1.70
2024-04-18T10:44:42.294Z,1.33
2024-04-18T10:47:15.703Z,1.80
2024-04-18T10:49:45.409Z,1.90
2024-04-18T10:52:19.153Z,2.10
2024-04-18T10:54:49.887Z,2.00
2024-04-18T10:57:19.872Z,2.13
2024-04-18T10:59:49.769Z,2.20
2024-04-18T11:02:22.106Z,2.10
2024-04-18T11:04:51.805Z,1.90
2024-04-18T11:07:22.408Z,2.03
2024-04-18T11:09:52.056Z,1.93
2024-04-18T11:12:21.838Z,2.63
2024-04-18T11:14:52.723Z,2.47
2024-04-18T11:17:25.085Z,2.40
2024-04-18T11:19:57.997Z,2.20
2024-04-18T11:22:28.532Z,2.07
2024-04-18T11:25:00.740Z,2.20
2024-04-18T11:27:27.819Z,2.07
2024-04-18T11:29:58.149Z,2.00
2024-04-18T11:32:33.128Z,1.63
2024-04-18T11:35:11.465Z,1.80
2024-04-18T11:37:45.370Z,1.67
2024-04-18T11:40:15.612Z,1.63
2024-04-18T11:42:45.477Z,1.67
2024-04-18T11:45:15.458Z,1.50
2024-04-18T11:47:47.785Z,1.57
2024-04-18T11:50:17.533Z,1.50
2024-04-18T11:52:47.574Z,1.47
2024-04-18T11:55:17.390Z,2.43
2024-04-18T11:57:47.447Z,1.60
2024-04-18T12:00:17.335Z,1.30
2024-04-18T12:02:49.617Z,1.40
2024-04-18T12:05:19.352Z,1.20
2024-04-18T12:07:49.012Z,1.03
2024-04-18T12:10:18.759Z,1.07
2024-04-18T12:12:48.448Z,1.43
2024-04-18T12:15:15.756Z,1.30
2024-04-18T12:17:45.529Z,1.23
2024-04-18T12:20:20.057Z,1.77
2024-04-18T12:22:49.751Z,1.10
2024-04-18T12:25:20.589Z,1.00
2024-04-18T12:27:50.850Z,0.90
2024-04-18T12:30:20.658Z,0.93
2024-04-18T12:32:50.986Z,1.70
2024-04-18T12:35:23.276Z,3.43
2024-04-18T12:37:53.541Z,1.93
2024-04-18T12:40:23.399Z,2.43
2024-04-18T12:42:53.181Z,1.93
2024-04-18T12:45:22.884Z,1.20
2024-04-18T12:47:58.779Z,22.03
2024-04-18T12:50:31.230Z,1.33
2024-04-18T12:53:01.068Z,0.80
2024-04-18T12:55:31.049Z,1.27
2024-04-18T12:58:02.518Z,1.07
2024-04-18T13:00:32.347Z,0.80
2024-04-18T13:03:02.429Z,0.80
2024-04-18T13:05:34.779Z,0.90
2024-04-18T13:08:04.599Z,1.00
2024-04-18T13:10:34.261Z,0.90
2024-04-18T13:13:03.919Z,0.90
2024-04-18T13:15:33.915Z,0.80
2024-04-18T13:18:04.198Z,1.10
2024-04-18T13:20:36.525Z,1.10
2024-04-18T13:23:06.323Z,37.83
2024-04-18T13:25:37.509Z,29.63
2024-04-18T13:28:07.821Z,2.80
2024-04-18T13:30:37.675Z,1.93
2024-04-18T13:33:07.730Z,4.60
2024-04-18T13:35:40.053Z,1.03
2024-04-18T13:38:09.697Z,0.93
2024-04-18T13:40:39.330Z,1.03
2024-04-18T13:43:08.994Z,0.80
2024-04-18T13:45:38.775Z,1.03
2024-04-18T13:48:09.773Z,0.90
2024-04-18T13:50:42.071Z,1.00
2024-04-18T13:53:12.618Z,1.07
2024-04-18T13:55:45.769Z,1.03
2024-04-18T13:58:15.424Z,0.90
2024-04-18T14:00:45.217Z,1.00
2024-04-18T14:03:17.530Z,1.00
2024-04-18T14:05:51.532Z,1.00
2024-04-18T14:08:21.194Z,1.20
2024-04-18T14:10:48.402Z,1.17
2024-04-18T14:13:21.006Z,1.40
2024-04-18T14:16:12.291Z,1.20
2024-04-18T14:18:52.628Z,1.07
2024-04-18T14:21:24.957Z,1.13
2024-04-18T14:23:54.600Z,1.30
2024-04-18T14:26:24.380Z,1.40
2024-04-18T14:28:54.121Z,1.23
2024-04-18T14:31:24.651Z,1.47
2024-04-18T14:33:56.889Z,1.33
2024-04-18T14:36:29.338Z,1.17
2024-04-18T14:38:58.968Z,1.20
2024-04-18T14:41:28.656Z,1.40
2024-04-18T14:44:00.716Z,0.60
2024-04-18T14:46:31.136Z,1.00
2024-04-18T14:49:04.252Z,1.10
2024-04-18T14:51:36.681Z,1.23
2024-04-18T14:54:06.673Z,1.30
2024-04-18T14:56:36.373Z,1.53
2024-04-18T14:59:06.443Z,1.60
2024-04-18T15:01:36.114Z,1.13
2024-04-18T15:04:05.891Z,1.30
2024-04-18T15:06:38.296Z,1.50
2024-04-18T15:09:08.467Z,1.20
2024-04-18T15:11:38.372Z,1.20
2024-04-18T15:14:09.130Z,1.60
2024-04-18T15:16:39.170Z,1.10
2024-04-18T15:19:08.873Z,1.13
2024-04-18T15:21:41.320Z,1.27
2024-04-18T15:24:11.780Z,1.20
2024-04-18T15:26:41.424Z,1.10
2024-04-18T15:29:11.054Z,1.20
2024-04-18T15:31:38.098Z,1.27
2024-04-18T15:34:07.732Z,1.30
2024-04-18T15:36:37.875Z,1.23
2024-04-18T15:39:11.144Z,1.10
2024-04-18T15:41:40.888Z,1.80
2024-04-18T15:44:10.646Z,1.40
2024-04-18T15:46:41.495Z,0.97
2024-04-18T15:49:12.396Z,1.20
2024-04-18T15:51:42.409Z,1.20
2024-04-18T15:54:14.777Z,2.43
2024-04-18T15:56:44.467Z,1.10
2024-04-18T15:59:14.979Z,0.90
2024-04-18T16:01:44.768Z,1.07
2024-04-18T16:04:14.910Z,1.20
2024-04-18T16:06:45.310Z,1.10
2024-04-18T16:09:17.728Z,0.90
2024-04-18T16:11:47.406Z,1.27
2024-04-18T16:14:17.222Z,1.20
2024-04-18T16:16:46.878Z,1.27
2024-04-18T16:19:16.608Z,1.20
2024-04-18T16:21:46.407Z,1.40
2024-04-18T16:24:19.010Z,1.00
2024-04-18T16:26:51.885Z,1.20
2024-04-18T16:29:19.007Z,1.10
2024-04-18T16:31:48.805Z,1.40
2024-04-18T16:34:18.601Z,1.47
2024-04-18T16:37:04.048Z,1.13
2024-04-18T16:39:41.643Z,1.83
2024-04-18T16:42:11.374Z,1.47
2024-04-18T16:44:41.066Z,1.40
2024-04-18T16:47:10.844Z,1.50
2024-04-18T16:49:41.283Z,1.70
2024-04-18T16:52:11.356Z,1.57
2024-04-18T16:54:44.284Z,1.43
2024-04-18T16:57:13.977Z,1.30
2024-04-18T16:59:43.709Z,1.70
2024-04-18T17:02:13.373Z,1.57
2024-04-18T17:04:43.115Z,1.63
2024-04-18T17:07:13.193Z,1.60
2024-04-18T17:09:45.560Z,1.60
2024-04-18T17:12:15.428Z,1.30
2024-04-18T17:14:45.142Z,1.60
2024-04-18T17:17:14.814Z,1.47
2024-04-18T17:19:44.509Z,1.70
2024-04-18T17:22:14.303Z,1.63
2024-04-18T17:24:46.768Z,1.67
2024-04-18T17:27:16.523Z,1.60
2024-04-18T17:29:46.746Z,1.40
2024-04-18T17:32:16.484Z,1.60
2024-04-18T17:34:46.094Z,2.20
2024-04-18T17:37:15.790Z,5.80
2024-04-18T17:39:49.306Z,1.80
2024-04-18T17:42:19.017Z,1.43
2024-04-18T17:44:48.646Z,1.83
2024-04-18T17:47:18.272Z,1.53
2024-04-18T17:49:48.090Z,1.60
2024-04-18T17:52:17.759Z,1.57
2024-04-18T17:54:50.054Z,1.40
2024-04-18T17:57:19.757Z,1.67
2024-04-18T17:59:49.622Z,2.30
2024-04-18T18:02:19.351Z,2.03
2024-04-18T18:04:49.105Z,2.03
2024-04-18T18:07:18.727Z,1.90
2024-04-18T18:09:50.998Z,1.80
2024-04-18T18:12:20.741Z,1.80
2024-04-18T18:14:50.613Z,1.33
2024-04-18T18:17:20.358Z,1.77
2024-04-18T18:19:50.055Z,1.67
2024-04-18T18:22:19.766Z,1.97
2024-04-18T18:24:52.027Z,2.73
2024-04-18T18:27:21.735Z,1.97
2024-04-18T18:29:50.995Z,1.50
2024-04-18T18:32:20.848Z,1.60
2024-04-18T18:34:48.588Z,1.57
2024-04-18T18:37:18.970Z,1.33
2024-04-18T18:39:51.647Z,1.73
2024-04-18T18:42:18.874Z,1.73
2024-04-18T18:44:48.566Z,1.60
2024-04-18T18:47:15.635Z,1.73
2024-04-18T18:49:45.480Z,1.80
2024-04-18T18:52:12.511Z,1.93
2024-04-18T18:54:42.310Z,1.57
2024-04-18T18:57:12.768Z,1.70
2024-04-18T18:59:46.173Z,2.03
2024-04-18T19:02:13.340Z,1.97
2024-04-18T19:04:43.187Z,2.40
2024-04-18T19:07:10.297Z,2.03
2024-04-18T19:09:42.481Z,2.17
2024-04-18T19:12:12.605Z,2.17
2024-04-18T19:14:42.383Z,1.97
2024-04-18T19:17:09.777Z,1.93
2024-04-18T19:19:40.022Z,2.23
2024-04-18T19:22:07.048Z,2.10
2024-04-18T19:24:36.779Z,2.17
2024-04-18T19:27:04.213Z,3.13
2024-04-18T19:29:44.673Z,4.50
2024-04-18T19:32:14.285Z,7.73
2024-04-18T19:34:44.009Z,4.70
2024-04-18T19:37:11.057Z,4.40
2024-04-18T19:39:40.778Z,3.23
2024-04-18T19:42:07.981Z,3.10
2024-04-18T19:44:40.383Z,3.37
2024-04-18T19:47:07.491Z,2.90
2024-04-18T19:49:38.678Z,2.37
2024-04-18T19:52:08.558Z,2.90
2024-04-18T19:54:38.843Z,2.93
2024-04-18T19:57:06.759Z,3.00
2024-04-18T19:59:36.630Z,2.90
2024-04-18T20:02:06.603Z,2.30
2024-04-18T20:04:36.318Z,2.40
2024-04-18T20:07:03.573Z,2.70
2024-04-18T20:09:33.708Z,2.60
2024-04-18T20:12:02.070Z,2.10
2024-04-18T20:14:31.955Z,2.30
2024-04-18T20:16:58.984Z,2.70
2024-04-18T20:19:31.312Z,2.90
2024-04-18T20:21:58.390Z,2.60
2024-04-18T20:24:29.554Z,2.60
2024-04-18T20:26:56.663Z,2.60
2024-04-18T20:29:26.348Z,2.47
2024-04-18T20:31:53.442Z,2.77
2024-04-18T20:34:24.448Z,2.43
2024-04-18T20:36:54.115Z,2.70
2024-04-18T20:39:23.786Z,2.33
2024-04-18T20:41:50.843Z,2.73
2024-04-18T20:44:20.501Z,2.50
2024-04-18T20:46:47.565Z,2.70
2024-04-18T20:49:17.646Z,2.50
2024-04-18T20:51:44.715Z,2.83
2024-04-18T20:54:17.019Z,2.90
2024-04-18T20:56:44.105Z,3.10
2024-04-18T20:59:15.706Z,3.33
2024-04-18T21:04:30.096Z,2.60
2024-04-18T21:06:57.181Z,3.03
2024-04-18T21:09:30.123Z,2.90
2024-04-18T21:11:58.612Z,3.17
2024-04-18T21:14:28.288Z,2.97
2024-04-18T21:16:55.349Z,3.07
2024-04-18T21:19:25.263Z,2.93
2024-04-18T21:21:52.470Z,2.77
2024-04-18T21:24:22.129Z,2.63
2024-04-18T21:26:51.867Z,2.67
2024-04-18T21:29:21.533Z,2.60
2024-04-18T21:31:48.606Z,2.80
2024-04-18T21:34:18.372Z,2.90
2024-04-18T21:36:45.735Z,2.90
2024-04-18T21:39:15.433Z,3.00
2024-04-18T21:41:42.960Z,2.50
2024-04-18T21:44:15.491Z,3.40
2024-04-18T21:46:42.539Z,2.80
2024-04-18T21:49:12.204Z,2.70
2024-04-18T21:51:39.294Z,2.97
2024-04-18T21:54:09.047Z,2.87
2024-04-18T21:56:36.134Z,2.50
2024-04-18T21:59:05.770Z,2.90
2024-04-18T22:01:35.430Z,2.63
2024-04-18T22:04:05.296Z,2.80
2024-04-18T22:06:33.367Z,2.30
2024-04-18T22:09:03.065Z,2.50
2024-04-18T22:11:30.214Z,2.30
2024-04-18T22:13:59.931Z,2.50
2024-04-18T22:16:26.987Z,2.83
2024-04-18T22:18:59.466Z,2.70
2024-04-18T22:21:26.616Z,3.07
2024-04-18T22:23:56.303Z,3.23
2024-04-18T22:26:23.660Z,3.30
2024-04-18T22:28:54.447Z,3.40
2024-04-18T22:31:21.639Z,3.50
2024-04-18T22:33:51.393Z,2.90
2024-04-18T22:36:21.375Z,3.00
2024-04-18T22:38:51.908Z,3.07
2024-04-18T22:41:19.006Z,3.17
2024-04-18T22:43:48.645Z,4.27
2024-04-18T22:46:15.717Z,3.70
2024-04-18T22:48:45.703Z,4.07
2024-04-18T22:51:12.892Z,3.70
2024-04-18T22:53:45.140Z,3.83
2024-04-18T22:56:12.206Z,3.93
2024-04-18T22:58:41.860Z,3.90
2024-04-18T23:01:09.123Z,4.03
2024-04-18T23:03:38.884Z,3.70
2024-04-18T23:06:06.057Z,3.50
2024-04-18T23:08:35.719Z,3.50
2024-04-18T23:11:05.368Z,4.10
2024-04-18T23:13:35.046Z,2.77
2024-04-18T23:16:04.676Z,3.53
2024-04-18T23:18:32.076Z,3.33
2024-04-18T23:21:01.898Z,2.97
2024-04-18T23:23:28.964Z,3.33
2024-04-18T23:25:58.947Z,3.40
2024-04-18T23:28:31.198Z,3.70
2024-04-18T23:30:58.243Z,2.87
2024-04-18T23:33:28.609Z,3.40
2024-04-18T23:35:55.817Z,3.27
2024-04-18T23:38:25.448Z,3.07
2024-04-18T23:40:52.479Z,2.80
2024-04-18T23:43:22.094Z,2.67
2024-04-18T23:45:51.962Z,2.90
2024-04-18T23:48:21.898Z,2.50
2024-04-18T23:50:49.006Z,2.73
2024-04-18T23:53:18.637Z,2.70
2024-04-18T23:55:45.975Z,3.23
2024-04-18T23:58:15.565Z,2.53
